sensor_id;sensor_type;location;lat;lon;timestamp;P1;durP1;ratioP1;P2;durP2;ratioP2
31378;SDS011;61664;48.112;11.662;2023-02-19T00:02:07;0.68;;;0.50;;
31378;SDS011;61664;48.112;11.662;2023-02-19T00:04:34;1.73;;;0.90;;
31378;SDS011;61664;48.112;11.662;2023-02-19T00:07:01;0.68;;;0.68;;
31378;SDS011;61664;48.112;11.662;2023-02-19T00:09:28;0.60;;;0.60;;
31378;SDS011;61664;48.112;11.662;2023-02-19T00:11:55;0.80;;;0.63;;
31378;SDS011;61664;48.112;11.662;2023-02-19T00:14:22;0.40;;;0.40;;
31378;SDS011;61664;48.112;11.662;2023-02-19T00:16:48;1.02;;;0.60;;
31378;SDS011;61664;48.112;11.662;2023-02-19T00:19:16;0.40;;;0.40;;
31378;SDS011;61664;48.112;11.662;2023-02-19T00:21:45;1.02;;;0.55;;
31378;SDS011;61664;48.112;11.662;2023-02-19T00:24:15;0.50;;;0.50;;
31378;SDS011;61664;48.112;11.662;2023-02-19T00:26:42;0.70;;;0.70;;
31378;SDS011;61664;48.112;11.662;2023-02-19T00:29:12;0.80;;;0.68;;
31378;SDS011;61664;48.112;11.662;2023-02-19T00:31:45;0.40;;;0.40;;
31378;SDS011;61664;48.112;11.662;2023-02-19T00:34:13;0.60;;;0.60;;
31378;SDS011;61664;48.112;11.662;2023-02-19T00:36:40;0.52;;;0.40;;
31378;SDS011;61664;48.112;11.662;2023-02-19T00:39:10;0.57;;;0.50;;
31378;SDS011;61664;48.112;11.662;2023-02-19T00:41:43;0.52;;;0.52;;
31378;SDS011;61664;48.112;11.662;2023-02-19T00:44:11;0.82;;;0.80;;
31378;SDS011;61664;48.112;11.662;2023-02-19T00:46:40;0.60;;;0.60;;
31378;SDS011;61664;48.112;11.662;2023-02-19T00:49:17;0.63;;;0.63;;
31378;SDS011;61664;48.112;11.662;2023-02-19T00:51:47;0.93;;;0.60;;
31378;SDS011;61664;48.112;11.662;2023-02-19T00:54:17;0.50;;;0.50;;
31378;SDS011;61664;48.112;11.662;2023-02-19T00:56:45;2.03;;;0.50;;
31378;SDS011;61664;48.112;11.662;2023-02-19T00:59:12;0.80;;;0.50;;
31378;SDS011;61664;48.112;11.662;2023-02-19T01:01:40;0.50;;;0.50;;
31378;SDS011;61664;48.112;11.662;2023-02-19T01:04:10;0.60;;;0.60;;
31378;SDS011;61664;48.112;11.662;2023-02-19T01:06:37;1.00;;;0.90;;
31378;SDS011;61664;48.112;11.662;2023-02-19T01:09:04;0.60;;;0.60;;
31378;SDS011;61664;48.112;11.662;2023-02-19T01:11:32;0.60;;;0.50;;
31378;SDS011;61664;48.112;11.662;2023-02-19T01:14:00;0.52;;;0.52;;
31378;SDS011;61664;48.112;11.662;2023-02-19T01:16:28;0.40;;;0.40;;
31378;SDS011;61664;48.112;11.662;2023-02-19T01:18:56;1.02;;;0.75;;
31378;SDS011;61664;48.112;11.662;2023-02-19T01:21:25;0.68;;;0.50;;
31378;SDS011;61664;48.112;11.662;2023-02-19T01:23:54;1.35;;;0.70;;
31378;SDS011;61664;48.112;11.662;2023-02-19T01:26:24;0.63;;;0.60;;
31378;SDS011;61664;48.112;11.662;2023-02-19T01:28:55;0.52;;;0.52;;
31378;SDS011;61664;48.112;11.662;2023-02-19T01:31:23;0.55;;;0.50;;
31378;SDS011;61664;48.112;11.662;2023-02-19T01:33:55;1.20;;;0.80;;
31378;SDS011;61664;48.112;11.662;2023-02-19T01:36:25;0.80;;;0.70;;
31378;SDS011;61664;48.112;11.662;2023-02-19T01:38:53;0.47;;;0.47;;
31378;SDS011;61664;48.112;11.662;2023-02-19T01:41:22;0.50;;;0.45;;
31378;SDS011;61664;48.112;11.662;2023-02-19T01:46:38;0.50;;;0.50;;
31378;SDS011;61664;48.112;11.662;2023-02-19T01:49:14;0.63;;;0.63;;
31378;SDS011;61664;48.112;11.662;2023-02-19T01:54:23;0.50;;;0.50;;
31378;SDS011;61664;48.112;11.662;2023-02-19T01:56:56;0.65;;;0.40;;
31378;SDS011;61664;48.112;11.662;2023-02-19T01:59:24;0.57;;;0.50;;
31378;SDS011;61664;48.112;11.662;2023-02-19T02:01:51;0.50;;;0.35;;
31378;SDS011;61664;48.112;11.662;2023-02-19T02:04:19;0.40;;;0.40;;
31378;SDS011;61664;48.112;11.662;2023-02-19T02:06:50;0.70;;;0.60;;
31378;SDS011;61664;48.112;11.662;2023-02-19T02:09:21;0.60;;;0.50;;
31378;SDS011;61664;48.112;11.662;2023-02-19T02:12:10;0.75;;;0.75;;
31378;SDS011;61664;48.112;11.662;2023-02-19T02:14:39;0.50;;;0.50;;
31378;SDS011;61664;48.112;11.662;2023-02-19T02:17:20;0.55;;;0.55;;
31378;SDS011;61664;48.112;11.662;2023-02-19T02:23:15;0.68;;;0.52;;
31378;SDS011;61664;48.112;11.662;2023-02-19T02:26:34;4.13;;;0.40;;
31378;SDS011;61664;48.112;11.662;2023-02-19T02:36:28;0.60;;;0.50;;
31378;SDS011;61664;48.112;11.662;2023-02-19T02:39:01;0.88;;;0.80;;
31378;SDS011;61664;48.112;11.662;2023-02-19T02:41:34;0.90;;;0.90;;
31378;SDS011;61664;48.112;11.662;2023-02-19T02:44:09;0.63;;;0.63;;
31378;SDS011;61664;48.112;11.662;2023-02-19T02:46:37;2.00;;;1.33;;
31378;SDS011;61664;48.112;11.662;2023-02-19T02:49:18;1.17;;;0.85;;
31378;SDS011;61664;48.112;11.662;2023-02-19T02:51:49;1.25;;;0.85;;
31378;SDS011;61664;48.112;11.662;2023-02-19T02:54:29;5.43;;;1.83;;
31378;SDS011;61664;48.112;11.662;2023-02-19T02:57:17;0.85;;;0.85;;
31378;SDS011;61664;48.112;11.662;2023-02-19T02:59:45;0.80;;;0.80;;
31378;SDS011;61664;48.112;11.662;2023-02-19T03:02:19;2.15;;;0.80;;
31378;SDS011;61664;48.112;11.662;2023-02-19T03:10:28;0.80;;;0.80;;
31378;SDS011;61664;48.112;11.662;2023-02-19T03:13:06;0.73;;;0.65;;
31378;SDS011;61664;48.112;11.662;2023-02-19T03:16:16;0.77;;;0.77;;
31378;SDS011;61664;48.112;11.662;2023-02-19T03:19:08;0.93;;;0.70;;
31378;SDS011;61664;48.112;11.662;2023-02-19T03:22:07;1.02;;;0.95;;
31378;SDS011;61664;48.112;11.662;2023-02-19T03:24:40;1.58;;;0.90;;
31378;SDS011;61664;48.112;11.662;2023-02-19T03:27:35;1.50;;;0.90;;
31378;SDS011;61664;48.112;11.662;2023-02-19T03:30:08;1.10;;;1.10;;
31378;SDS011;61664;48.112;11.662;2023-02-19T03:32:45;0.80;;;0.80;;
31378;SDS011;61664;48.112;11.662;2023-02-19T03:35:20;2.15;;;1.35;;
31378;SDS011;61664;48.112;11.662;2023-02-19T03:37:58;1.95;;;1.08;;
31378;SDS011;61664;48.112;11.662;2023-02-19T03:40:40;1.50;;;1.40;;
31378;SDS011;61664;48.112;11.662;2023-02-19T03:43:37;1.38;;;1.10;;
31378;SDS011;61664;48.112;11.662;2023-02-19T03:46:55;1.70;;;0.88;;
31378;SDS011;61664;48.112;11.662;2023-02-19T03:55:21;1.73;;;1.20;;
31378;SDS011;61664;48.112;11.662;2023-02-19T03:58:16;1.83;;;0.90;;
31378;SDS011;61664;48.112;11.662;2023-02-19T04:00:59;2.22;;;0.90;;
31378;SDS011;61664;48.112;11.662;2023-02-19T04:03:55;1.35;;;1.10;;
31378;SDS011;61664;48.112;11.662;2023-02-19T04:06:55;1.50;;;1.02;;
31378;SDS011;61664;48.112;11.662;2023-02-19T04:09:28;1.80;;;1.55;;
31378;SDS011;61664;48.112;11.662;2023-02-19T04:12:04;2.25;;;1.10;;
31378;SDS011;61664;48.112;11.662;2023-02-19T04:14:39;1.35;;;1.15;;
31378;SDS011;61664;48.112;11.662;2023-02-19T04:17:19;2.03;;;1.10;;
31378;SDS011;61664;48.112;11.662;2023-02-19T04:19:57;1.00;;;1.00;;
31378;SDS011;61664;48.112;11.662;2023-02-19T04:22:27;1.30;;;1.10;;
31378;SDS011;61664;48.112;11.662;2023-02-19T04:24:55;1.33;;;1.23;;
31378;SDS011;61664;48.112;11.662;2023-02-19T04:27:22;1.40;;;1.30;;
31378;SDS011;61664;48.112;11.662;2023-02-19T04:29:49;1.33;;;1.23;;
31378;SDS011;61664;48.112;11.662;2023-02-19T04:32:16;1.40;;;1.30;;
31378;SDS011;61664;48.112;11.662;2023-02-19T04:34:43;1.40;;;1.30;;
31378;SDS011;61664;48.112;11.662;2023-02-19T04:37:10;1.20;;;1.10;;
31378;SDS011;61664;48.112;11.662;2023-02-19T04:39:38;0.90;;;0.90;;
31378;SDS011;61664;48.112;11.662;2023-02-19T04:42:04;1.33;;;1.23;;
31378;SDS011;61664;48.112;11.662;2023-02-19T04:44:32;1.45;;;1.35;;
31378;SDS011;61664;48.112;11.662;2023-02-19T04:46:59;1.42;;;1.33;;
31378;SDS011;61664;48.112;11.662;2023-02-19T04:49:26;2.92;;;1.33;;
31378;SDS011;61664;48.112;11.662;2023-02-19T04:51:53;1.58;;;1.48;;
31378;SDS011;61664;48.112;11.662;2023-02-19T04:54:20;1.67;;;1.27;;
31378;SDS011;61664;48.112;11.662;2023-02-19T04:56:47;2.92;;;1.35;;
31378;SDS011;61664;48.112;11.662;2023-02-19T04:59:15;1.30;;;1.20;;
31378;SDS011;61664;48.112;11.662;2023-02-19T05:01:42;1.15;;;1.05;;
31378;SDS011;61664;48.112;11.662;2023-02-19T05:04:09;2.03;;;1.20;;
31378;SDS011;61664;48.112;11.662;2023-02-19T05:06:36;1.40;;;1.30;;
31378;SDS011;61664;48.112;11.662;2023-02-19T05:09:03;1.25;;;1.05;;
31378;SDS011;61664;48.112;11.662;2023-02-19T05:11:30;1.27;;;1.17;;
31378;SDS011;61664;48.112;11.662;2023-02-19T05:13:57;1.30;;;1.17;;
31378;SDS011;61664;48.112;11.662;2023-02-19T05:16:24;1.77;;;1.30;;
31378;SDS011;61664;48.112;11.662;2023-02-19T05:18:51;1.20;;;1.10;;
31378;SDS011;61664;48.112;11.662;2023-02-19T05:21:18;1.50;;;1.40;;
31378;SDS011;61664;48.112;11.662;2023-02-19T05:23:45;1.15;;;1.05;;
31378;SDS011;61664;48.112;11.662;2023-02-19T05:26:13;2.58;;;1.10;;
31378;SDS011;61664;48.112;11.662;2023-02-19T05:28:46;1.30;;;1.20;;
31378;SDS011;61664;48.112;11.662;2023-02-19T05:31:16;0.95;;;0.93;;
31378;SDS011;61664;48.112;11.662;2023-02-19T05:33:45;1.02;;;1.00;;
31378;SDS011;61664;48.112;11.662;2023-02-19T05:36:16;1.10;;;1.00;;
31378;SDS011;61664;48.112;11.662;2023-02-19T05:38:46;1.00;;;0.80;;
31378;SDS011;61664;48.112;11.662;2023-02-19T05:41:17;1.00;;;0.90;;
31378;SDS011;61664;48.112;11.662;2023-02-19T05:43:56;0.95;;;0.90;;
31378;SDS011;61664;48.112;11.662;2023-02-19T05:46:24;0.80;;;0.80;;
31378;SDS011;61664;48.112;11.662;2023-02-19T05:48:54;0.90;;;0.77;;
31378;SDS011;61664;48.112;11.662;2023-02-19T05:51:24;0.80;;;0.80;;
31378;SDS011;61664;48.112;11.662;2023-02-19T05:53:52;1.48;;;1.38;;
31378;SDS011;61664;48.112;11.662;2023-02-19T05:59:26;0.90;;;0.90;;
31378;SDS011;61664;48.112;11.662;2023-02-19T06:01:53;1.20;;;1.05;;
31378;SDS011;61664;48.112;11.662;2023-02-19T06:04:20;0.80;;;0.80;;
31378;SDS011;61664;48.112;11.662;2023-02-19T06:06:48;0.75;;;0.75;;
31378;SDS011;61664;48.112;11.662;2023-02-19T06:09:15;1.17;;;1.00;;
31378;SDS011;61664;48.112;11.662;2023-02-19T06:11:42;0.57;;;0.57;;
31378;SDS011;61664;48.112;11.662;2023-02-19T06:14:13;0.60;;;0.60;;
31378;SDS011;61664;48.112;11.662;2023-02-19T06:16:40;0.70;;;0.70;;
31378;SDS011;61664;48.112;11.662;2023-02-19T06:19:08;1.38;;;1.27;;
31378;SDS011;61664;48.112;11.662;2023-02-19T06:21:35;0.80;;;0.80;;
31378;SDS011;61664;48.112;11.662;2023-02-19T06:24:05;0.95;;;0.95;;
31378;SDS011;61664;48.112;11.662;2023-02-19T06:26:34;0.80;;;0.80;;
31378;SDS011;61664;48.112;11.662;2023-02-19T06:29:01;0.90;;;0.90;;
31378;SDS011;61664;48.112;11.662;2023-02-19T06:31:28;1.30;;;0.80;;
31378;SDS011;61664;48.112;11.662;2023-02-19T06:33:55;0.95;;;0.90;;
31378;SDS011;61664;48.112;11.662;2023-02-19T06:36:22;0.68;;;0.68;;
31378;SDS011;61664;48.112;11.662;2023-02-19T06:38:50;1.05;;;0.98;;
31378;SDS011;61664;48.112;11.662;2023-02-19T06:41:17;0.65;;;0.65;;
31378;SDS011;61664;48.112;11.662;2023-02-19T06:43:44;0.73;;;0.73;;
31378;SDS011;61664;48.112;11.662;2023-02-19T06:46:11;1.17;;;0.93;;
31378;SDS011;61664;48.112;11.662;2023-02-19T06:48:39;1.08;;;0.98;;
31378;SDS011;61664;48.112;11.662;2023-02-19T06:51:10;1.00;;;1.00;;
31378;SDS011;61664;48.112;11.662;2023-02-19T06:53:49;1.05;;;0.85;;
31378;SDS011;61664;48.112;11.662;2023-02-19T06:59:01;0.73;;;0.73;;
31378;SDS011;61664;48.112;11.662;2023-02-19T07:01:32;0.57;;;0.57;;
31378;SDS011;61664;48.112;11.662;2023-02-19T07:04:00;0.95;;;0.85;;
31378;SDS011;61664;48.112;11.662;2023-02-19T07:06:28;0.70;;;0.70;;
31378;SDS011;61664;48.112;11.662;2023-02-19T07:08:56;1.67;;;1.02;;
31378;SDS011;61664;48.112;11.662;2023-02-19T07:11:25;1.02;;;1.02;;
31378;SDS011;61664;48.112;11.662;2023-02-19T07:13:56;0.88;;;0.88;;
31378;SDS011;61664;48.112;11.662;2023-02-19T07:18:57;1.08;;;0.98;;
31378;SDS011;61664;48.112;11.662;2023-02-19T07:21:26;2.92;;;1.02;;
31378;SDS011;61664;48.112;11.662;2023-02-19T07:23:53;0.93;;;0.93;;
31378;SDS011;61664;48.112;11.662;2023-02-19T07:26:22;1.30;;;1.20;;
31378;SDS011;61664;48.112;11.662;2023-02-19T07:28:49;1.55;;;0.80;;
31378;SDS011;61664;48.112;11.662;2023-02-19T07:31:18;0.82;;;0.82;;
31378;SDS011;61664;48.112;11.662;2023-02-19T07:33:48;0.93;;;0.90;;
31378;SDS011;61664;48.112;11.662;2023-02-19T07:36:16;0.80;;;0.80;;
31378;SDS011;61664;48.112;11.662;2023-02-19T07:38:44;1.10;;;1.00;;
31378;SDS011;61664;48.112;11.662;2023-02-19T07:41:11;1.00;;;1.00;;
31378;SDS011;61664;48.112;11.662;2023-02-19T07:43:39;0.90;;;0.90;;
31378;SDS011;61664;48.112;11.662;2023-02-19T07:46:10;1.40;;;1.30;;
31378;SDS011;61664;48.112;11.662;2023-02-19T07:48:39;1.85;;;1.00;;
31378;SDS011;61664;48.112;11.662;2023-02-19T07:51:13;1.13;;;0.93;;
31378;SDS011;61664;48.112;11.662;2023-02-19T07:53:44;0.98;;;0.98;;
31378;SDS011;61664;48.112;11.662;2023-02-19T07:56:13;1.35;;;1.25;;
31378;SDS011;61664;48.112;11.662;2023-02-19T07:58:40;0.80;;;0.80;;
31378;SDS011;61664;48.112;11.662;2023-02-19T08:01:09;0.80;;;0.80;;
31378;SDS011;61664;48.112;11.662;2023-02-19T08:03:41;0.90;;;0.90;;
31378;SDS011;61664;48.112;11.662;2023-02-19T08:06:09;4.68;;;1.10;;
31378;SDS011;61664;48.112;11.662;2023-02-19T08:08:37;1.23;;;1.13;;
31378;SDS011;61664;48.112;11.662;2023-02-19T08:11:05;1.52;;;1.42;;
31378;SDS011;61664;48.112;11.662;2023-02-19T08:13:51;1.27;;;1.17;;
31378;SDS011;61664;48.112;11.662;2023-02-19T08:16:19;1.63;;;1.20;;
31378;SDS011;61664;48.112;11.662;2023-02-19T08:19:02;1.20;;;1.10;;
31378;SDS011;61664;48.112;11.662;2023-02-19T08:21:29;1.15;;;0.98;;
31378;SDS011;61664;48.112;11.662;2023-02-19T08:23:59;0.93;;;0.93;;
31378;SDS011;61664;48.112;11.662;2023-02-19T08:26:26;1.27;;;1.17;;
31378;SDS011;61664;48.112;11.662;2023-02-19T08:28:53;1.60;;;1.50;;
31378;SDS011;61664;48.112;11.662;2023-02-19T08:31:20;1.25;;;1.23;;
31378;SDS011;61664;48.112;11.662;2023-02-19T08:33:47;1.15;;;0.98;;
31378;SDS011;61664;48.112;11.662;2023-02-19T08:36:13;0.95;;;0.95;;
31378;SDS011;61664;48.112;11.662;2023-02-19T08:38:40;1.73;;;0.98;;
31378;SDS011;61664;48.112;11.662;2023-02-19T08:41:08;1.73;;;1.30;;
31378;SDS011;61664;48.112;11.662;2023-02-19T08:43:38;2.30;;;0.90;;
31378;SDS011;61664;48.112;11.662;2023-02-19T08:46:06;1.27;;;0.90;;
31378;SDS011;61664;48.112;11.662;2023-02-19T08:48:35;1.00;;;1.00;;
31378;SDS011;61664;48.112;11.662;2023-02-19T08:51:04;1.15;;;1.05;;
31378;SDS011;61664;48.112;11.662;2023-02-19T08:53:35;0.75;;;0.75;;
31378;SDS011;61664;48.112;11.662;2023-02-19T08:56:05;1.15;;;1.05;;
31378;SDS011;61664;48.112;11.662;2023-02-19T08:58:38;1.00;;;1.00;;
31378;SDS011;61664;48.112;11.662;2023-02-19T09:01:09;0.70;;;0.70;;
31378;SDS011;61664;48.112;11.662;2023-02-19T09:03:40;1.30;;;1.20;;
31378;SDS011;61664;48.112;11.662;2023-02-19T09:06:10;0.88;;;0.88;;
31378;SDS011;61664;48.112;11.662;2023-02-19T09:08:42;1.00;;;0.90;;
31378;SDS011;61664;48.112;11.662;2023-02-19T09:11:09;0.73;;;0.73;;
31378;SDS011;61664;48.112;11.662;2023-02-19T09:13:36;1.52;;;1.42;;
31378;SDS011;61664;48.112;11.662;2023-02-19T09:16:03;1.00;;;1.00;;
31378;SDS011;61664;48.112;11.662;2023-02-19T09:18:31;0.90;;;0.90;;
31378;SDS011;61664;48.112;11.662;2023-02-19T09:20:59;0.98;;;0.98;;
31378;SDS011;61664;48.112;11.662;2023-02-19T09:23:34;1.10;;;1.10;;
31378;SDS011;61664;48.112;11.662;2023-02-19T09:26:02;1.10;;;1.10;;
31378;SDS011;61664;48.112;11.662;2023-02-19T09:28:34;1.40;;;1.30;;
31378;SDS011;61664;48.112;11.662;2023-02-19T09:31:03;1.00;;;1.00;;
31378;SDS011;61664;48.112;11.662;2023-02-19T09:33:32;1.40;;;1.30;;
31378;SDS011;61664;48.112;11.662;2023-02-19T09:35:58;0.80;;;0.80;;
31378;SDS011;61664;48.112;11.662;2023-02-19T09:38:26;0.95;;;0.90;;
31378;SDS011;61664;48.112;11.662;2023-02-19T09:40:55;0.80;;;0.80;;
31378;SDS011;61664;48.112;11.662;2023-02-19T09:43:24;1.00;;;1.00;;
31378;SDS011;61664;48.112;11.662;2023-02-19T09:48:34;0.52;;;0.52;;
31378;SDS011;61664;48.112;11.662;2023-02-19T09:51:01;0.68;;;0.68;;
31378;SDS011;61664;48.112;11.662;2023-02-19T09:53:33;0.30;;;0.30;;
31378;SDS011;61664;48.112;11.662;2023-02-19T09:56:09;0.30;;;0.25;;
31378;SDS011;61664;48.112;11.662;2023-02-19T09:58:41;0.17;;;0.10;;
31378;SDS011;61664;48.112;11.662;2023-02-19T10:01:14;0.32;;;0.30;;
31378;SDS011;61664;48.112;11.662;2023-02-19T10:03:44;0.10;;;0.10;;
31378;SDS011;61664;48.112;11.662;2023-02-19T10:08:49;0.20;;;0.20;;
31378;SDS011;61664;48.112;11.662;2023-02-19T10:11:20;0.38;;;0.38;;
31378;SDS011;61664;48.112;11.662;2023-02-19T10:13:53;0.30;;;0.30;;
31378;SDS011;61664;48.112;11.662;2023-02-19T10:16:38;0.50;;;0.50;;
31378;SDS011;61664;48.112;11.662;2023-02-19T10:19:11;0.40;;;0.40;;
31378;SDS011;61664;48.112;11.662;2023-02-19T10:21:39;0.38;;;0.38;;
31378;SDS011;61664;48.112;11.662;2023-02-19T10:24:07;0.50;;;0.50;;
31378;SDS011;61664;48.112;11.662;2023-02-19T10:26:46;0.52;;;0.30;;
31378;SDS011;61664;48.112;11.662;2023-02-19T10:29:15;0.30;;;0.20;;
31378;SDS011;61664;48.112;11.662;2023-02-19T10:31:42;1.35;;;0.30;;
31378;SDS011;61664;48.112;11.662;2023-02-19T10:34:16;0.40;;;0.40;;
31378;SDS011;61664;48.112;11.662;2023-02-19T10:36:48;0.38;;;0.30;;
31378;SDS011;61664;48.112;11.662;2023-02-19T10:44:48;0.22;;;0.20;;
31378;SDS011;61664;48.112;11.662;2023-02-19T10:47:24;0.20;;;0.20;;
31378;SDS011;61664;48.112;11.662;2023-02-19T10:49:57;0.20;;;0.20;;
31378;SDS011;61664;48.112;11.662;2023-02-19T10:52:30;0.40;;;0.40;;
31378;SDS011;61664;48.112;11.662;2023-02-19T10:55:15;0.30;;;0.20;;
31378;SDS011;61664;48.112;11.662;2023-02-19T10:57:54;0.32;;;0.25;;
31378;SDS011;61664;48.112;11.662;2023-02-19T11:00:23;0.32;;;0.25;;
31378;SDS011;61664;48.112;11.662;2023-02-19T11:03:13;0.30;;;0.20;;
31378;SDS011;61664;48.112;11.662;2023-02-19T11:05:53;0.30;;;0.30;;
31378;SDS011;61664;48.112;11.662;2023-02-19T11:08:29;0.28;;;0.28;;
31378;SDS011;61664;48.112;11.662;2023-02-19T11:11:05;0.30;;;0.30;;
31378;SDS011;61664;48.112;11.662;2023-02-19T11:13:32;0.20;;;0.20;;
31378;SDS011;61664;48.112;11.662;2023-02-19T11:16:03;0.17;;;0.17;;
31378;SDS011;61664;48.112;11.662;2023-02-19T11:18:31;0.20;;;0.20;;
31378;SDS011;61664;48.112;11.662;2023-02-19T11:21:02;0.25;;;0.25;;
31378;SDS011;61664;48.112;11.662;2023-02-19T11:26:16;0.28;;;0.28;;
31378;SDS011;61664;48.112;11.662;2023-02-19T11:28:54;0.10;;;0.10;;
31378;SDS011;61664;48.112;11.662;2023-02-19T11:31:25;0.20;;;0.20;;
31378;SDS011;61664;48.112;11.662;2023-02-19T11:33:59;0.20;;;0.20;;
31378;SDS011;61664;48.112;11.662;2023-02-19T11:37:10;0.88;;;0.20;;
31378;SDS011;61664;48.112;11.662;2023-02-19T11:39:43;0.40;;;0.20;;
31378;SDS011;61664;48.112;11.662;2023-02-19T11:45:08;0.10;;;0.10;;
31378;SDS011;61664;48.112;11.662;2023-02-19T11:51:30;0.20;;;0.20;;
31378;SDS011;61664;48.112;11.662;2023-02-19T12:05:46;0.75;;;0.30;;
31378;SDS011;61664;48.112;11.662;2023-02-19T12:11:27;0.30;;;0.30;;
31378;SDS011;61664;48.112;11.662;2023-02-19T12:20:29;0.45;;;0.30;;
31378;SDS011;61664;48.112;11.662;2023-02-19T12:25:45;0.28;;;0.28;;
31378;SDS011;61664;48.112;11.662;2023-02-19T12:37:43;0.40;;;0.40;;
31378;SDS011;61664;48.112;11.662;2023-02-19T12:43:18;0.85;;;0.30;;
31378;SDS011;61664;48.112;11.662;2023-02-19T12:54:15;0.30;;;0.30;;
31378;SDS011;61664;48.112;11.662;2023-02-19T12:59:54;0.22;;;0.20;;
31378;SDS011;61664;48.112;11.662;2023-02-19T13:05:54;0.30;;;0.30;;
31378;SDS011;61664;48.112;11.662;2023-02-19T13:09:12;0.30;;;0.30;;
31378;SDS011;61664;48.112;11.662;2023-02-19T13:11:55;0.85;;;0.50;;
31378;SDS011;61664;48.112;11.662;2023-02-19T13:14:33;0.40;;;0.40;;
31378;SDS011;61664;48.112;11.662;2023-02-19T13:17:24;0.20;;;0.20;;
31378;SDS011;61664;48.112;11.662;2023-02-19T13:32:02;1.15;;;0.40;;
31378;SDS011;61664;48.112;11.662;2023-02-19T13:37:58;1.13;;;0.60;;
31378;SDS011;61664;48.112;11.662;2023-02-19T13:43:03;1.45;;;0.32;;
31378;SDS011;61664;48.112;11.662;2023-02-19T13:45:40;1.05;;;0.65;;
31378;SDS011;61664;48.112;11.662;2023-02-19T13:48:24;0.82;;;0.20;;
31378;SDS011;61664;48.112;11.662;2023-02-19T14:07:50;0.25;;;0.20;;
31378;SDS011;61664;48.112;11.662;2023-02-19T14:10:48;1.00;;;0.20;;
31378;SDS011;61664;48.112;11.662;2023-02-19T14:16:27;0.80;;;0.80;;
31378;SDS011;61664;48.112;11.662;2023-02-19T14:18:54;0.20;;;0.20;;
31378;SDS011;61664;48.112;11.662;2023-02-19T14:21:22;0.30;;;0.30;;
31378;SDS011;61664;48.112;11.662;2023-02-19T14:23:52;0.38;;;0.30;;
31378;SDS011;61664;48.112;11.662;2023-02-19T14:26:24;0.70;;;0.30;;
31378;SDS011;61664;48.112;11.662;2023-02-19T14:28:52;0.40;;;0.30;;
31378;SDS011;61664;48.112;11.662;2023-02-19T14:31:26;0.30;;;0.30;;
31378;SDS011;61664;48.112;11.662;2023-02-19T14:34:00;0.45;;;0.45;;
31378;SDS011;61664;48.112;11.662;2023-02-19T14:39:22;0.50;;;0.40;;
31378;SDS011;61664;48.112;11.662;2023-02-19T14:42:07;0.88;;;0.30;;
31378;SDS011;61664;48.112;11.662;2023-02-19T14:44:44;0.40;;;0.30;;
31378;SDS011;61664;48.112;11.662;2023-02-19T14:47:18;0.70;;;0.43;;
31378;SDS011;61664;48.112;11.662;2023-02-19T14:50:00;1.15;;;0.70;;
31378;SDS011;61664;48.112;11.662;2023-02-19T14:52:37;0.40;;;0.40;;
31378;SDS011;61664;48.112;11.662;2023-02-19T14:57:58;0.35;;;0.30;;
31378;SDS011;61664;48.112;11.662;2023-02-19T15:00:38;0.50;;;0.40;;
31378;SDS011;61664;48.112;11.662;2023-02-19T15:03:23;0.73;;;0.52;;
31378;SDS011;61664;48.112;11.662;2023-02-19T15:06:11;0.65;;;0.60;;
31378;SDS011;61664;48.112;11.662;2023-02-19T15:08:47;0.60;;;0.60;;
31378;SDS011;61664;48.112;11.662;2023-02-19T15:11:19;1.65;;;0.75;;
31378;SDS011;61664;48.112;11.662;2023-02-19T15:13:50;0.93;;;0.65;;
31378;SDS011;61664;48.112;11.662;2023-02-19T15:16:24;1.95;;;1.27;;
31378;SDS011;61664;48.112;11.662;2023-02-19T15:18:54;0.93;;;0.80;;
31378;SDS011;61664;48.112;11.662;2023-02-19T15:21:27;1.70;;;1.40;;
31378;SDS011;61664;48.112;11.662;2023-02-19T15:24:02;0.95;;;0.88;;
31378;SDS011;61664;48.112;11.662;2023-02-19T15:26:33;1.17;;;0.97;;
31378;SDS011;61664;48.112;11.662;2023-02-19T15:29:08;1.17;;;0.98;;
31378;SDS011;61664;48.112;11.662;2023-02-19T15:34:15;1.23;;;0.50;;
31378;SDS011;61664;48.112;11.662;2023-02-19T15:36:59;0.40;;;0.40;;
31378;SDS011;61664;48.112;11.662;2023-02-19T15:42:08;0.52;;;0.30;;
31378;SDS011;61664;48.112;11.662;2023-02-19T15:44:48;0.38;;;0.38;;
31378;SDS011;61664;48.112;11.662;2023-02-19T15:47:46;0.60;;;0.40;;
31378;SDS011;61664;48.112;11.662;2023-02-19T15:50:24;0.38;;;0.30;;
31378;SDS011;61664;48.112;11.662;2023-02-19T15:53:14;0.60;;;0.40;;
31378;SDS011;61664;48.112;11.662;2023-02-19T15:55:49;0.77;;;0.50;;
31378;SDS011;61664;48.112;11.662;2023-02-19T16:03:52;0.52;;;0.40;;
31378;SDS011;61664;48.112;11.662;2023-02-19T16:06:21;0.93;;;0.70;;
31378;SDS011;61664;48.112;11.662;2023-02-19T16:11:34;2.00;;;0.60;;
31378;SDS011;61664;48.112;11.662;2023-02-19T16:19:41;0.70;;;0.43;;
31378;SDS011;61664;48.112;11.662;2023-02-19T16:22:27;0.70;;;0.38;;
31378;SDS011;61664;48.112;11.662;2023-02-19T16:25:03;0.50;;;0.50;;
31378;SDS011;61664;48.112;11.662;2023-02-19T16:27:33;0.40;;;0.40;;
31378;SDS011;61664;48.112;11.662;2023-02-19T16:30:46;0.30;;;0.30;;
31378;SDS011;61664;48.112;11.662;2023-02-19T16:33:19;2.10;;;0.40;;
31378;SDS011;61664;48.112;11.662;2023-02-19T16:38:59;0.93;;;0.70;;
31378;SDS011;61664;48.112;11.662;2023-02-19T16:41:29;0.30;;;0.30;;
31378;SDS011;61664;48.112;11.662;2023-02-19T16:43:56;0.63;;;0.55;;
31378;SDS011;61664;48.112;11.662;2023-02-19T16:46:23;0.43;;;0.43;;
31378;SDS011;61664;48.112;11.662;2023-02-19T16:48:50;1.17;;;0.47;;
31378;SDS011;61664;48.112;11.662;2023-02-19T16:51:24;0.43;;;0.43;;
31378;SDS011;61664;48.112;11.662;2023-02-19T16:53:53;0.40;;;0.40;;
31378;SDS011;61664;48.112;11.662;2023-02-19T16:56:20;1.15;;;0.65;;
31378;SDS011;61664;48.112;11.662;2023-02-19T16:58:50;0.50;;;0.50;;
31378;SDS011;61664;48.112;11.662;2023-02-19T17:01:17;0.73;;;0.73;;
31378;SDS011;61664;48.112;11.662;2023-02-19T17:03:44;2.35;;;0.90;;
31378;SDS011;61664;48.112;11.662;2023-02-19T17:06:14;2.80;;;1.00;;
31378;SDS011;61664;48.112;11.662;2023-02-19T17:08:42;1.65;;;1.00;;
31378;SDS011;61664;48.112;11.662;2023-02-19T17:11:11;1.23;;;0.43;;
31378;SDS011;61664;48.112;11.662;2023-02-19T17:13:41;0.65;;;0.55;;
31378;SDS011;61664;48.112;11.662;2023-02-19T17:16:15;1.10;;;0.97;;
31378;SDS011;61664;48.112;11.662;2023-02-19T17:18:54;0.93;;;0.70;;
31378;SDS011;61664;48.112;11.662;2023-02-19T17:21:22;0.90;;;0.80;;
31378;SDS011;61664;48.112;11.662;2023-02-19T17:23:52;1.20;;;0.90;;
31378;SDS011;61664;48.112;11.662;2023-02-19T17:26:24;1.60;;;0.95;;
31378;SDS011;61664;48.112;11.662;2023-02-19T17:28:57;1.13;;;1.02;;
31378;SDS011;61664;48.112;11.662;2023-02-19T17:31:26;1.08;;;0.80;;
31378;SDS011;61664;48.112;11.662;2023-02-19T17:33:53;3.35;;;0.80;;
31378;SDS011;61664;48.112;11.662;2023-02-19T17:36:22;1.73;;;0.75;;
31378;SDS011;61664;48.112;11.662;2023-02-19T17:38:58;1.48;;;0.70;;
31378;SDS011;61664;48.112;11.662;2023-02-19T17:41:27;2.28;;;0.85;;
31378;SDS011;61664;48.112;11.662;2023-02-19T17:43:54;0.68;;;0.50;;
31378;SDS011;61664;48.112;11.662;2023-02-19T17:46:22;0.98;;;0.50;;
31378;SDS011;61664;48.112;11.662;2023-02-19T17:48:52;0.70;;;0.50;;
31378;SDS011;61664;48.112;11.662;2023-02-19T17:51:20;0.70;;;0.60;;
31378;SDS011;61664;48.112;11.662;2023-02-19T17:53:47;2.05;;;1.25;;
31378;SDS011;61664;48.112;11.662;2023-02-19T17:56:18;0.90;;;0.85;;
31378;SDS011;61664;48.112;11.662;2023-02-19T17:58:47;0.70;;;0.68;;